This is the latest recevied weather packets stored in our database for station/object IZ1UQG-N2. If no packets are shown the sender has not sent any weather packets the latest 10 day(s).
| Time | Temp. | Humidity | Pressure | Rain* | Wind** | Luminosity | Snow |
|---|---|---|---|---|---|---|---|
| 1777269041 | 15° C | 67% | 1017.5 hPa | 0 mm | - | 144 W/m² | - |
| 1777268984 | 15° C | 67% | 1017.4 hPa | 0 mm | - | 142 W/m² | - |
| 1777268924 | 15° C | 68% | 1017.6 hPa | 0 mm | - | 137 W/m² | - |
| 1777268864 | 14.44° C | 68% | 1017.5 hPa | 0 mm | - | 134 W/m² | - |
| 1777268859 | 14.44° C | 68% | 1017.5 hPa | 0 mm | - | 134 W/m² | - |
| 1777268803 | 14.44° C | 68% | 1017.5 hPa | 0 mm | - | 132 W/m² | - |
| 1777268743 | 14.44° C | 69% | 1017.5 hPa | 0 mm | - | 130 W/m² | - |
| 1777268683 | 14.44° C | 69% | 1017.5 hPa | 0 mm | - | 127 W/m² | - |
| 1777268680 | 14.44° C | 69% | 1017.5 hPa | 0 mm | - | 127 W/m² | - |
| 1777268624 | 14.44° C | 69% | 1017.5 hPa | 0 mm | - | 125 W/m² | - |
| 1777268564 | 14.44° C | 69% | 1017.5 hPa | 0 mm | - | 111 W/m² | - |
| 1777268504 | 14.44° C | 69% | 1017.6 hPa | 0 mm | - | 111 W/m² | - |
| 1777268500 | 14.44° C | 69% | 1017.6 hPa | 0 mm | - | 111 W/m² | - |
| 1777268443 | 14.44° C | 69% | 1017.5 hPa | 0 mm | - | 111 W/m² | - |
| 1777268382 | 14.44° C | 69% | 1017.5 hPa | 0 mm | - | 111 W/m² | - |
| 1777267008 | 14.44° C | 69% | 1017.2 hPa | 0 mm | - | 56 W/m² | - |
| 1777266948 | 14.44° C | 69% | 1017.2 hPa | 0 mm | - | 54 W/m² | - |
| 1777266910 | 14.44° C | 69% | 1017.2 hPa | 0 mm | - | 53 W/m² | - |
| 1777266888 | 14.44° C | 69% | 1017.2 hPa | 0 mm | - | 53 W/m² | - |
| 1777266829 | 14.44° C | 69% | 1017.1 hPa | 0 mm | - | 49 W/m² | - |
| 1777266769 | 14.44° C | 70% | 1017.1 hPa | 0 mm | - | 47 W/m² | - |
| 1777266730 | 14.44° C | 70% | 1017.1 hPa | 0 mm | - | 47 W/m² | - |
| 1777266708 | 14.44° C | 70% | 1017.3 hPa | 0 mm | - | 46 W/m² | - |
| 1777266648 | 14.44° C | 70% | 1017.2 hPa | 0 mm | - | 44 W/m² | - |
| 1777266588 | 13.89° C | 69% | 1017.2 hPa | 0 mm | - | 42 W/m² | - |
* Rain latest hour (hover to see other rain measurements)
** Current wind speed in m/s (hover to see current wind gust speed)